sensor_id;sensor_type;location;lat;lon;timestamp;temperature;humidity
1476;DHT22;730;48.870;12.542;2023-02-25T00:02:13;5.70;1.00
1476;DHT22;730;48.870;12.542;2023-02-25T00:04:39;5.70;1.00
1476;DHT22;730;48.870;12.542;2023-02-25T00:07:09;5.70;1.00
1476;DHT22;730;48.870;12.542;2023-02-25T00:09:35;5.70;1.00
1476;DHT22;730;48.870;12.542;2023-02-25T00:12:01;5.70;1.00
1476;DHT22;730;48.870;12.542;2023-02-25T00:14:27;5.70;1.00
1476;DHT22;730;48.870;12.542;2023-02-25T00:16:54;5.70;1.00
1476;DHT22;730;48.870;12.542;2023-02-25T00:19:23;5.60;1.00
1476;DHT22;730;48.870;12.542;2023-02-25T00:21:49;5.60;1.00
1476;DHT22;730;48.870;12.542;2023-02-25T00:24:16;5.60;1.00
1476;DHT22;730;48.870;12.542;2023-02-25T00:26:43;5.60;1.00
1476;DHT22;730;48.870;12.542;2023-02-25T00:29:09;5.60;1.00
1476;DHT22;730;48.870;12.542;2023-02-25T00:31:35;5.60;1.00
1476;DHT22;730;48.870;12.542;2023-02-25T00:34:01;5.60;1.00
1476;DHT22;730;48.870;12.542;2023-02-25T00:36:27;5.60;1.00
1476;DHT22;730;48.870;12.542;2023-02-25T00:38:55;5.60;1.00
1476;DHT22;730;48.870;12.542;2023-02-25T00:41:25;5.60;1.00
1476;DHT22;730;48.870;12.542;2023-02-25T00:43:54;5.50;1.00
1476;DHT22;730;48.870;12.542;2023-02-25T00:46:21;5.50;1.00
1476;DHT22;730;48.870;12.542;2023-02-25T00:48:47;5.50;1.00
1476;DHT22;730;48.870;12.542;2023-02-25T00:51:15;5.50;1.00
1476;DHT22;730;48.870;12.542;2023-02-25T00:53:42;5.50;1.00
1476;DHT22;730;48.870;12.542;2023-02-25T00:56:10;5.50;1.00
1476;DHT22;730;48.870;12.542;2023-02-25T00:58:42;5.50;1.00
1476;DHT22;730;48.870;12.542;2023-02-25T01:01:35;5.50;1.00
1476;DHT22;730;48.870;12.542;2023-02-25T01:04:04;5.50;1.00
1476;DHT22;730;48.870;12.542;2023-02-25T01:06:32;5.50;1.00
1476;DHT22;730;48.870;12.542;2023-02-25T01:08:59;5.40;1.00
1476;DHT22;730;48.870;12.542;2023-02-25T01:11:28;5.40;1.00
1476;DHT22;730;48.870;12.542;2023-02-25T01:14:02;5.40;1.00
1476;DHT22;730;48.870;12.542;2023-02-25T01:16:30;5.40;1.00
1476;DHT22;730;48.870;12.542;2023-02-25T01:18:59;5.40;1.00
1476;DHT22;730;48.870;12.542;2023-02-25T01:21:28;5.40;1.00
1476;DHT22;730;48.870;12.542;2023-02-25T01:24:11;5.40;1.10
1476;DHT22;730;48.870;12.542;2023-02-25T01:26:38;5.40;1.00
1476;DHT22;730;48.870;12.542;2023-02-25T01:29:09;5.40;1.00
1476;DHT22;730;48.870;12.542;2023-02-25T01:31:35;5.40;1.30
1476;DHT22;730;48.870;12.542;2023-02-25T01:34:04;5.30;1.00
1476;DHT22;730;48.870;12.542;2023-02-25T01:36:31;5.30;1.70
1476;DHT22;730;48.870;12.542;2023-02-25T01:38:58;5.20;1.70
1476;DHT22;730;48.870;12.542;2023-02-25T01:41:26;5.20;2.00
1476;DHT22;730;48.870;12.542;2023-02-25T01:46:45;5.20;1.70
1476;DHT22;730;48.870;12.542;2023-02-25T01:49:14;5.30;1.70
1476;DHT22;730;48.870;12.542;2023-02-25T01:51:43;5.30;1.50
1476;DHT22;730;48.870;12.542;2023-02-25T01:54:11;5.30;1.30
1476;DHT22;730;48.870;12.542;2023-02-25T01:56:40;5.30;1.50
1476;DHT22;730;48.870;12.542;2023-02-25T01:59:07;5.40;1.10
1476;DHT22;730;48.870;12.542;2023-02-25T02:01:37;5.40;1.20
1476;DHT22;730;48.870;12.542;2023-02-25T02:04:06;5.40;1.10
1476;DHT22;730;48.870;12.542;2023-02-25T02:06:36;5.40;1.00
1476;DHT22;730;48.870;12.542;2023-02-25T02:09:05;5.40;1.00
1476;DHT22;730;48.870;12.542;2023-02-25T02:11:32;5.40;1.00
1476;DHT22;730;48.870;12.542;2023-02-25T02:13:59;5.40;1.00
1476;DHT22;730;48.870;12.542;2023-02-25T02:33:18;5.30;3.20
1476;DHT22;730;48.870;12.542;2023-02-25T02:36:14;5.30;3.70
1476;DHT22;730;48.870;12.542;2023-02-25T02:38:49;5.30;3.90
1476;DHT22;730;48.870;12.542;2023-02-25T02:41:33;5.20;4.30
1476;DHT22;730;48.870;12.542;2023-02-25T02:44:04;5.10;4.80
1476;DHT22;730;48.870;12.542;2023-02-25T02:46:41;5.00;5.60
1476;DHT22;730;48.870;12.542;2023-02-25T02:51:58;5.00;5.50
1476;DHT22;730;48.870;12.542;2023-02-25T02:54:29;5.00;5.60
1476;DHT22;730;48.870;12.542;2023-02-25T02:56:57;4.90;5.60
1476;DHT22;730;48.870;12.542;2023-02-25T02:59:36;5.00;5.90
1476;DHT22;730;48.870;12.542;2023-02-25T03:02:13;5.00;5.70
1476;DHT22;730;48.870;12.542;2023-02-25T03:04:42;5.00;5.50
1476;DHT22;730;48.870;12.542;2023-02-25T03:07:11;5.10;5.50
1476;DHT22;730;48.870;12.542;2023-02-25T03:09:46;5.10;5.30
1476;DHT22;730;48.870;12.542;2023-02-25T03:12:14;5.10;5.00
1476;DHT22;730;48.870;12.542;2023-02-25T03:17:16;5.20;4.60
1476;DHT22;730;48.870;12.542;2023-02-25T03:20:02;5.20;4.10
1476;DHT22;730;48.870;12.542;2023-02-25T03:22:37;5.20;3.90
1476;DHT22;730;48.870;12.542;2023-02-25T03:25:25;5.30;4.00
1476;DHT22;730;48.870;12.542;2023-02-25T03:28:30;5.30;4.10
1476;DHT22;730;48.870;12.542;2023-02-25T03:31:17;5.30;3.80
1476;DHT22;730;48.870;12.542;2023-02-25T03:34:02;5.30;3.60
1476;DHT22;730;48.870;12.542;2023-02-25T03:36:40;5.30;3.60
1476;DHT22;730;48.870;12.542;2023-02-25T03:39:11;5.30;3.60
1476;DHT22;730;48.870;12.542;2023-02-25T03:41:43;5.20;3.40
1476;DHT22;730;48.870;12.542;2023-02-25T03:44:14;5.20;2.80
1476;DHT22;730;48.870;12.542;2023-02-25T03:46:44;5.20;2.00
1476;DHT22;730;48.870;12.542;2023-02-25T03:49:16;5.10;1.10
1476;DHT22;730;48.870;12.542;2023-02-25T03:51:44;5.10;1.00
1476;DHT22;730;48.870;12.542;2023-02-25T03:54:13;5.00;1.10
1476;DHT22;730;48.870;12.542;2023-02-25T03:56:49;5.00;1.40
1476;DHT22;730;48.870;12.542;2023-02-25T03:59:16;5.00;1.00
1476;DHT22;730;48.870;12.542;2023-02-25T04:01:45;5.00;1.00
1476;DHT22;730;48.870;12.542;2023-02-25T04:04:12;4.90;1.00
1476;DHT22;730;48.870;12.542;2023-02-25T04:06:38;4.90;1.00
1476;DHT22;730;48.870;12.542;2023-02-25T04:09:04;4.80;1.00
1476;DHT22;730;48.870;12.542;2023-02-25T04:11:32;4.80;1.00
1476;DHT22;730;48.870;12.542;2023-02-25T04:13:59;4.80;1.00
1476;DHT22;730;48.870;12.542;2023-02-25T04:16:25;4.80;1.00
1476;DHT22;730;48.870;12.542;2023-02-25T04:18:51;4.80;1.00
1476;DHT22;730;48.870;12.542;2023-02-25T04:21:26;4.70;1.00
1476;DHT22;730;48.870;12.542;2023-02-25T04:23:53;4.70;1.00
1476;DHT22;730;48.870;12.542;2023-02-25T04:26:19;4.70;1.00
1476;DHT22;730;48.870;12.542;2023-02-25T04:28:45;4.70;1.00
1476;DHT22;730;48.870;12.542;2023-02-25T04:31:11;4.60;1.00
1476;DHT22;730;48.870;12.542;2023-02-25T04:33:37;4.50;1.00
1476;DHT22;730;48.870;12.542;2023-02-25T04:36:04;4.50;1.00
1476;DHT22;730;48.870;12.542;2023-02-25T04:38:30;4.50;1.00
1476;DHT22;730;48.870;12.542;2023-02-25T04:40:56;4.40;1.00
1476;DHT22;730;48.870;12.542;2023-02-25T04:43:22;4.30;1.00
1476;DHT22;730;48.870;12.542;2023-02-25T04:45:48;4.30;1.00
1476;DHT22;730;48.870;12.542;2023-02-25T04:48:14;4.30;1.00
1476;DHT22;730;48.870;12.542;2023-02-25T04:50:40;4.30;1.00
1476;DHT22;730;48.870;12.542;2023-02-25T04:53:06;4.20;1.00
1476;DHT22;730;48.870;12.542;2023-02-25T04:55:34;4.20;1.00
1476;DHT22;730;48.870;12.542;2023-02-25T04:58:02;4.20;1.00
1476;DHT22;730;48.870;12.542;2023-02-25T05:00:31;4.10;1.00
1476;DHT22;730;48.870;12.542;2023-02-25T05:02:57;4.10;1.00
1476;DHT22;730;48.870;12.542;2023-02-25T05:05:23;4.10;1.00
1476;DHT22;730;48.870;12.542;2023-02-25T05:07:49;4.00;1.00
1476;DHT22;730;48.870;12.542;2023-02-25T05:10:19;4.00;1.00
1476;DHT22;730;48.870;12.542;2023-02-25T05:12:45;4.00;1.00
1476;DHT22;730;48.870;12.542;2023-02-25T05:15:11;4.00;1.00
1476;DHT22;730;48.870;12.542;2023-02-25T05:17:37;4.00;1.00
1476;DHT22;730;48.870;12.542;2023-02-25T05:20:04;4.00;1.00
1476;DHT22;730;48.870;12.542;2023-02-25T05:22:37;4.00;1.00
1476;DHT22;730;48.870;12.542;2023-02-25T05:25:05;4.00;1.00
1476;DHT22;730;48.870;12.542;2023-02-25T05:27:33;4.00;1.00
1476;DHT22;730;48.870;12.542;2023-02-25T05:30:00;4.00;1.00
1476;DHT22;730;48.870;12.542;2023-02-25T05:32:27;4.00;1.00
1476;DHT22;730;48.870;12.542;2023-02-25T05:34:54;4.00;1.00
1476;DHT22;730;48.870;12.542;2023-02-25T05:37:20;4.00;1.00
1476;DHT22;730;48.870;12.542;2023-02-25T05:39:47;4.00;1.00
1476;DHT22;730;48.870;12.542;2023-02-25T05:42:13;4.00;1.00
1476;DHT22;730;48.870;12.542;2023-02-25T05:44:39;4.00;1.00
1476;DHT22;730;48.870;12.542;2023-02-25T05:47:05;3.90;1.00
1476;DHT22;730;48.870;12.542;2023-02-25T05:49:34;3.90;1.00
1476;DHT22;730;48.870;12.542;2023-02-25T05:52:00;3.90;1.00
1476;DHT22;730;48.870;12.542;2023-02-25T05:54:26;3.80;1.00
1476;DHT22;730;48.870;12.542;2023-02-25T05:56:52;3.70;1.00
1476;DHT22;730;48.870;12.542;2023-02-25T05:59:18;3.70;1.00
1476;DHT22;730;48.870;12.542;2023-02-25T06:01:44;3.80;1.00
1476;DHT22;730;48.870;12.542;2023-02-25T06:04:10;3.80;1.00
1476;DHT22;730;48.870;12.542;2023-02-25T06:06:36;3.70;1.00
1476;DHT22;730;48.870;12.542;2023-02-25T06:09:03;3.70;1.00
1476;DHT22;730;48.870;12.542;2023-02-25T06:11:30;3.70;1.00
1476;DHT22;730;48.870;12.542;2023-02-25T06:13:58;3.60;1.30
1476;DHT22;730;48.870;12.542;2023-02-25T06:16:25;3.60;1.00
1476;DHT22;730;48.870;12.542;2023-02-25T06:18:55;3.60;1.00
1476;DHT22;730;48.870;12.542;2023-02-25T06:21:21;3.60;1.00
1476;DHT22;730;48.870;12.542;2023-02-25T06:23:47;3.50;1.00
1476;DHT22;730;48.870;12.542;2023-02-25T06:26:15;3.60;1.00
1476;DHT22;730;48.870;12.542;2023-02-25T06:28:41;3.60;1.00
1476;DHT22;730;48.870;12.542;2023-02-25T06:31:09;3.50;1.00
1476;DHT22;730;48.870;12.542;2023-02-25T06:33:37;3.50;1.00
1476;DHT22;730;48.870;12.542;2023-02-25T06:36:04;3.60;1.00
1476;DHT22;730;48.870;12.542;2023-02-25T06:38:32;3.60;1.00
1476;DHT22;730;48.870;12.542;2023-02-25T06:40:58;3.60;1.00
1476;DHT22;730;48.870;12.542;2023-02-25T06:43:24;3.70;1.00
1476;DHT22;730;48.870;12.542;2023-02-25T06:45:50;3.70;1.00
1476;DHT22;730;48.870;12.542;2023-02-25T06:48:16;3.90;1.00
1476;DHT22;730;48.870;12.542;2023-02-25T06:50:42;4.00;1.00
1476;DHT22;730;48.870;12.542;2023-02-25T06:53:08;4.20;1.00
1476;DHT22;730;48.870;12.542;2023-02-25T06:55:38;4.30;1.00
1476;DHT22;730;48.870;12.542;2023-02-25T06:58:04;4.40;1.00
1476;DHT22;730;48.870;12.542;2023-02-25T07:00:30;4.50;1.00
1476;DHT22;730;48.870;12.542;2023-02-25T07:02:56;4.50;1.00
1476;DHT22;730;48.870;12.542;2023-02-25T07:05:22;4.60;1.00
1476;DHT22;730;48.870;12.542;2023-02-25T07:07:48;4.60;1.00
1476;DHT22;730;48.870;12.542;2023-02-25T07:10:14;4.50;1.00
1476;DHT22;730;48.870;12.542;2023-02-25T07:12:40;4.60;1.00
1476;DHT22;730;48.870;12.542;2023-02-25T07:15:11;4.60;1.00
1476;DHT22;730;48.870;12.542;2023-02-25T07:17:37;4.60;1.00
1476;DHT22;730;48.870;12.542;2023-02-25T07:20:03;4.50;1.00
1476;DHT22;730;48.870;12.542;2023-02-25T07:22:29;4.50;1.00
1476;DHT22;730;48.870;12.542;2023-02-25T07:24:55;4.50;1.00
1476;DHT22;730;48.870;12.542;2023-02-25T07:27:21;4.50;1.00
1476;DHT22;730;48.870;12.542;2023-02-25T07:29:47;4.40;1.00
1476;DHT22;730;48.870;12.542;2023-02-25T07:32:13;4.50;1.00
1476;DHT22;730;48.870;12.542;2023-02-25T07:34:40;4.50;1.00
1476;DHT22;730;48.870;12.542;2023-02-25T07:37:06;4.50;1.00
1476;DHT22;730;48.870;12.542;2023-02-25T07:39:32;4.50;1.00
1476;DHT22;730;48.870;12.542;2023-02-25T07:41:58;4.50;1.00
1476;DHT22;730;48.870;12.542;2023-02-25T07:44:24;4.50;1.00
1476;DHT22;730;48.870;12.542;2023-02-25T07:46:50;4.60;1.00
1476;DHT22;730;48.870;12.542;2023-02-25T07:49:16;4.60;1.00
1476;DHT22;730;48.870;12.542;2023-02-25T07:51:43;4.70;1.00
1476;DHT22;730;48.870;12.542;2023-02-25T07:54:09;4.70;1.00
1476;DHT22;730;48.870;12.542;2023-02-25T07:56:35;4.70;1.00
1476;DHT22;730;48.870;12.542;2023-02-25T07:59:01;4.70;1.00
1476;DHT22;730;48.870;12.542;2023-02-25T08:01:29;4.70;1.00
1476;DHT22;730;48.870;12.542;2023-02-25T08:03:59;4.70;1.00
1476;DHT22;730;48.870;12.542;2023-02-25T08:06:26;4.70;1.00
1476;DHT22;730;48.870;12.542;2023-02-25T08:08:52;4.80;1.00
1476;DHT22;730;48.870;12.542;2023-02-25T08:11:21;4.80;1.00
1476;DHT22;730;48.870;12.542;2023-02-25T08:13:47;4.90;1.00
1476;DHT22;730;48.870;12.542;2023-02-25T08:16:15;5.00;1.00
1476;DHT22;730;48.870;12.542;2023-02-25T08:18:42;5.10;1.00
1476;DHT22;730;48.870;12.542;2023-02-25T08:21:12;5.00;1.00
1476;DHT22;730;48.870;12.542;2023-02-25T08:23:39;5.10;1.00
1476;DHT22;730;48.870;12.542;2023-02-25T08:26:06;5.10;1.00
1476;DHT22;730;48.870;12.542;2023-02-25T08:28:35;5.10;1.00
1476;DHT22;730;48.870;12.542;2023-02-25T08:31:02;5.10;1.00
1476;DHT22;730;48.870;12.542;2023-02-25T08:33:28;5.10;1.00
1476;DHT22;730;48.870;12.542;2023-02-25T08:35:55;5.10;1.00
1476;DHT22;730;48.870;12.542;2023-02-25T08:38:21;5.10;1.00
1476;DHT22;730;48.870;12.542;2023-02-25T08:40:47;5.00;1.00
1476;DHT22;730;48.870;12.542;2023-02-25T08:43:13;5.00;1.00
1476;DHT22;730;48.870;12.542;2023-02-25T08:45:40;5.00;1.00
1476;DHT22;730;48.870;12.542;2023-02-25T08:48:06;5.00;1.00
1476;DHT22;730;48.870;12.542;2023-02-25T08:50:32;5.00;1.00
1476;DHT22;730;48.870;12.542;2023-02-25T08:52:58;5.00;1.00
1476;DHT22;730;48.870;12.542;2023-02-25T08:55:24;5.00;1.00
1476;DHT22;730;48.870;12.542;2023-02-25T08:57:51;5.00;1.00
1476;DHT22;730;48.870;12.542;2023-02-25T09:00:19;5.00;1.00
1476;DHT22;730;48.870;12.542;2023-02-25T09:02:46;5.00;1.00
1476;DHT22;730;48.870;12.542;2023-02-25T09:05:12;5.00;1.00
1476;DHT22;730;48.870;12.542;2023-02-25T09:07:39;5.00;1.00
1476;DHT22;730;48.870;12.542;2023-02-25T09:10:05;5.10;1.00
1476;DHT22;730;48.870;12.542;2023-02-25T09:12:32;5.10;1.00
1476;DHT22;730;48.870;12.542;2023-02-25T09:14:58;5.10;1.00
1476;DHT22;730;48.870;12.542;2023-02-25T09:17:24;5.20;1.00
1476;DHT22;730;48.870;12.542;2023-02-25T09:19:50;5.30;1.00
1476;DHT22;730;48.870;12.542;2023-02-25T09:22:16;5.40;1.00
1476;DHT22;730;48.870;12.542;2023-02-25T09:24:46;5.50;1.00
1476;DHT22;730;48.870;12.542;2023-02-25T09:27:13;5.60;1.00
1476;DHT22;730;48.870;12.542;2023-02-25T09:29:39;5.70;1.00
1476;DHT22;730;48.870;12.542;2023-02-25T09:32:06;5.80;1.00
1476;DHT22;730;48.870;12.542;2023-02-25T09:34:33;6.00;1.00
1476;DHT22;730;48.870;12.542;2023-02-25T09:37:02;6.10;1.00
1476;DHT22;730;48.870;12.542;2023-02-25T09:39:28;6.20;1.00
1476;DHT22;730;48.870;12.542;2023-02-25T09:42:09;6.30;1.00
1476;DHT22;730;48.870;12.542;2023-02-25T09:44:41;6.30;1.00
1476;DHT22;730;48.870;12.542;2023-02-25T09:50:11;6.30;1.00
1476;DHT22;730;48.870;12.542;2023-02-25T09:52:46;6.30;1.00
1476;DHT22;730;48.870;12.542;2023-02-25T09:55:35;6.30;1.00
1476;DHT22;730;48.870;12.542;2023-02-25T10:00:44;6.40;1.00
1476;DHT22;730;48.870;12.542;2023-02-25T10:03:37;6.40;1.00
1476;DHT22;730;48.870;12.542;2023-02-25T10:06:13;6.50;1.00
1476;DHT22;730;48.870;12.542;2023-02-25T10:11:45;6.50;1.00
1476;DHT22;730;48.870;12.542;2023-02-25T10:14:28;6.60;1.00
1476;DHT22;730;48.870;12.542;2023-02-25T10:25:10;6.80;1.00
1476;DHT22;730;48.870;12.542;2023-02-25T10:27:48;6.80;1.00
1476;DHT22;730;48.870;12.542;2023-02-25T10:30:19;6.90;1.00
1476;DHT22;730;48.870;12.542;2023-02-25T10:32:47;7.10;1.00
1476;DHT22;730;48.870;12.542;2023-02-25T10:35:18;7.30;1.00
1476;DHT22;730;48.870;12.542;2023-02-25T10:37:45;7.50;1.00
1476;DHT22;730;48.870;12.542;2023-02-25T10:40:19;7.80;1.00
1476;DHT22;730;48.870;12.542;2023-02-25T10:42:52;8.10;1.00
1476;DHT22;730;48.870;12.542;2023-02-25T10:45:25;8.50;1.00
1476;DHT22;730;48.870;12.542;2023-02-25T10:48:06;8.70;1.00
1476;DHT22;730;48.870;12.542;2023-02-25T10:50:32;8.90;1.00
1476;DHT22;730;48.870;12.542;2023-02-25T10:53:10;8.80;1.00
1476;DHT22;730;48.870;12.542;2023-02-25T10:55:50;8.80;1.00
1476;DHT22;730;48.870;12.542;2023-02-25T10:58:21;8.80;1.00
1476;DHT22;730;48.870;12.542;2023-02-25T11:01:18;8.50;1.00
1476;DHT22;730;48.870;12.542;2023-02-25T11:04:22;8.50;1.00
1476;DHT22;730;48.870;12.542;2023-02-25T11:06:41;8.30;1.00
1476;DHT22;730;48.870;12.542;2023-02-25T11:12:17;8.20;1.00
1476;DHT22;730;48.870;12.542;2023-02-25T11:14:44;8.10;1.00
1476;DHT22;730;48.870;12.542;2023-02-25T11:17:16;8.20;1.00
1476;DHT22;730;48.870;12.542;2023-02-25T11:19:47;8.30;1.00
1476;DHT22;730;48.870;12.542;2023-02-25T11:22:21;8.30;1.00
1476;DHT22;730;48.870;12.542;2023-02-25T11:24:59;8.30;1.00
1476;DHT22;730;48.870;12.542;2023-02-25T11:27:39;8.20;1.00
1476;DHT22;730;48.870;12.542;2023-02-25T11:32:43;7.90;1.00
1476;DHT22;730;48.870;12.542;2023-02-25T11:35:19;7.90;1.00
1476;DHT22;730;48.870;12.542;2023-02-25T11:37:46;7.90;1.00
1476;DHT22;730;48.870;12.542;2023-02-25T11:45:29;7.90;1.00
1476;DHT22;730;48.870;12.542;2023-02-25T11:47:56;8.10;1.00
1476;DHT22;730;48.870;12.542;2023-02-25T11:53:30;8.50;1.00
1476;DHT22;730;48.870;12.542;2023-02-25T11:56:17;8.70;1.00
1476;DHT22;730;48.870;12.542;2023-02-25T11:59:05;8.70;1.00
1476;DHT22;730;48.870;12.542;2023-02-25T12:01:57;8.70;1.00
1476;DHT22;730;48.870;12.542;2023-02-25T12:12:42;8.50;1.00
1476;DHT22;730;48.870;12.542;2023-02-25T12:27:21;8.80;1.00
1476;DHT22;730;48.870;12.542;2023-02-25T12:35:28;8.90;1.00
1476;DHT22;730;48.870;12.542;2023-02-25T12:44:30;9.20;1.00
1476;DHT22;730;48.870;12.542;2023-02-25T12:47:15;9.40;1.00
1476;DHT22;730;48.870;12.542;2023-02-25T12:49:55;9.70;1.00
1476;DHT22;730;48.870;12.542;2023-02-25T13:06:35;10.30;1.00
1476;DHT22;730;48.870;12.542;2023-02-25T13:18:02;10.90;1.00
1476;DHT22;730;48.870;12.542;2023-02-25T13:32:38;11.40;1.00
1476;DHT22;730;48.870;12.542;2023-02-25T13:43:50;11.30;1.00
1476;DHT22;730;48.870;12.542;2023-02-25T13:55:26;10.00;1.00
1476;DHT22;730;48.870;12.542;2023-02-25T13:58:10;9.70;1.00
1476;DHT22;730;48.870;12.542;2023-02-25T14:03:58;8.90;1.00
1476;DHT22;730;48.870;12.542;2023-02-25T14:15:36;8.30;1.00
1476;DHT22;730;48.870;12.542;2023-02-25T14:35:31;6.40;1.00
1476;DHT22;730;48.870;12.542;2023-02-25T14:38:22;6.10;1.00
1476;DHT22;730;48.870;12.542;2023-02-25T14:41:30;5.80;1.00
1476;DHT22;730;48.870;12.542;2023-02-25T14:44:06;5.70;1.00
1476;DHT22;730;48.870;12.542;2023-02-25T14:46:48;5.60;1.00
1476;DHT22;730;48.870;12.542;2023-02-25T14:49:22;5.50;1.00
1476;DHT22;730;48.870;12.542;2023-02-25T14:52:10;5.50;1.00
1476;DHT22;730;48.870;12.542;2023-02-25T14:57:50;5.60;1.00
1476;DHT22;730;48.870;12.542;2023-02-25T15:12:04;6.00;1.00
1476;DHT22;730;48.870;12.542;2023-02-25T15:14:58;5.90;1.00
1476;DHT22;730;48.870;12.542;2023-02-25T15:23:13;4.80;1.00
1476;DHT22;730;48.870;12.542;2023-02-25T15:33:40;3.90;1.00
1476;DHT22;730;48.870;12.542;2023-02-25T15:38:51;3.80;1.00
1476;DHT22;730;48.870;12.542;2023-02-25T15:44:00;3.90;1.00
1476;DHT22;730;48.870;12.542;2023-02-25T15:51:47;4.00;1.00
1476;DHT22;730;48.870;12.542;2023-02-25T15:59:51;4.30;1.00
1476;DHT22;730;48.870;12.542;2023-02-25T16:04:54;4.30;1.00
1476;DHT22;730;48.870;12.542;2023-02-25T16:07:29;4.40;1.00
1476;DHT22;730;48.870;12.542;2023-02-25T16:10:22;4.40;1.00
1476;DHT22;730;48.870;12.542;2023-02-25T16:12:51;4.40;1.00
1476;DHT22;730;48.870;12.542;2023-02-25T16:15:31;4.40;1.00
1476;DHT22;730;48.870;12.542;2023-02-25T16:18:11;4.30;1.00
1476;DHT22;730;48.870;12.542;2023-02-25T16:20:43;4.20;1.00
1476;DHT22;730;48.870;12.542;2023-02-25T16:23:13;4.10;1.00
1476;DHT22;730;48.870;12.542;2023-02-25T16:31:28;4.20;1.00
1476;DHT22;730;48.870;12.542;2023-02-25T16:34:05;4.20;1.00
1476;DHT22;730;48.870;12.542;2023-02-25T16:39:20;4.30;1.00
1476;DHT22;730;48.870;12.542;2023-02-25T16:41:49;4.30;1.00
1476;DHT22;730;48.870;12.542;2023-02-25T16:44:25;4.30;1.00
1476;DHT22;730;48.870;12.542;2023-02-25T16:46:56;4.40;1.00
1476;DHT22;730;48.870;12.542;2023-02-25T16:49:29;4.30;1.00
1476;DHT22;730;48.870;12.542;2023-02-25T16:51:59;4.30;1.00
1476;DHT22;730;48.870;12.542;2023-02-25T16:54:36;4.30;1.00
1476;DHT22;730;48.870;12.542;2023-02-25T16:57:05;4.30;1.00
1476;DHT22;730;48.870;12.542;2023-02-25T16:59:33;4.20;1.00
1476;DHT22;730;48.870;12.542;2023-02-25T17:04:36;4.20;1.10
1476;DHT22;730;48.870;12.542;2023-02-25T17:12:39;4.10;1.10
1476;DHT22;730;48.870;12.542;2023-02-25T17:15:27;4.00;1.80
1476;DHT22;730;48.870;12.542;2023-02-25T17:20:27;3.90;1.40
1476;DHT22;730;48.870;12.542;2023-02-25T17:22:55;3.90;1.50
1476;DHT22;730;48.870;12.542;2023-02-25T17:25:26;3.80;1.50
1476;DHT22;730;48.870;12.542;2023-02-25T17:27:54;3.70;1.70
1476;DHT22;730;48.870;12.542;2023-02-25T17:30:43;3.70;1.90
1476;DHT22;730;48.870;12.542;2023-02-25T17:33:24;3.70;2.00
1476;DHT22;730;48.870;12.542;2023-02-25T17:35:53;3.60;1.70
1476;DHT22;730;48.870;12.542;2023-02-25T17:38:22;3.60;2.00
1476;DHT22;730;48.870;12.542;2023-02-25T17:40:52;3.50;2.00
1476;DHT22;730;48.870;12.542;2023-02-25T17:43:23;3.50;2.20
1476;DHT22;730;48.870;12.542;2023-02-25T17:45:57;3.40;2.20
1476;DHT22;730;48.870;12.542;2023-02-25T17:48:29;3.40;2.70
1476;DHT22;730;48.870;12.542;2023-02-25T17:51:05;3.40;2.90
1476;DHT22;730;48.870;12.542;2023-02-25T17:53:42;3.40;2.90
1476;DHT22;730;48.870;12.542;2023-02-25T17:56:18;3.40;2.80
1476;DHT22;730;48.870;12.542;2023-02-25T17:58:47;3.30;2.70
1476;DHT22;730;48.870;12.542;2023-02-25T18:01:20;3.30;2.70
1476;DHT22;730;48.870;12.542;2023-02-25T18:03:48;3.30;2.90
1476;DHT22;730;48.870;12.542;2023-02-25T18:08:55;3.30;2.60
1476;DHT22;730;48.870;12.542;2023-02-25T18:13:47;3.30;2.70
1476;DHT22;730;48.870;12.542;2023-02-25T18:16:36;3.30;2.80
1476;DHT22;730;48.870;12.542;2023-02-25T18:19:17;3.30;2.70
1476;DHT22;730;48.870;12.542;2023-02-25T18:21:47;3.30;2.50
1476;DHT22;730;48.870;12.542;2023-02-25T18:24:34;3.20;2.30
1476;DHT22;730;48.870;12.542;2023-02-25T18:27:17;3.20;2.30
1476;DHT22;730;48.870;12.542;2023-02-25T18:29:44;3.20;2.30
1476;DHT22;730;48.870;12.542;2023-02-25T18:32:10;3.30;2.30
1476;DHT22;730;48.870;12.542;2023-02-25T18:34:36;3.30;2.30
1476;DHT22;730;48.870;12.542;2023-02-25T18:37:02;3.30;2.30
1476;DHT22;730;48.870;12.542;2023-02-25T18:39:28;3.30;2.40
1476;DHT22;730;48.870;12.542;2023-02-25T18:41:55;3.30;2.30
1476;DHT22;730;48.870;12.542;2023-02-25T18:44:21;3.30;2.30
1476;DHT22;730;48.870;12.542;2023-02-25T18:46:47;3.30;2.30
1476;DHT22;730;48.870;12.542;2023-02-25T18:49:13;3.30;2.20
1476;DHT22;730;48.870;12.542;2023-02-25T18:51:40;3.30;2.30
1476;DHT22;730;48.870;12.542;2023-02-25T18:54:08;3.30;2.10
1476;DHT22;730;48.870;12.542;2023-02-25T18:56:35;3.30;2.30
1476;DHT22;730;48.870;12.542;2023-02-25T18:59:02;3.30;2.30
1476;DHT22;730;48.870;12.542;2023-02-25T19:01:31;3.30;2.30
1476;DHT22;730;48.870;12.542;2023-02-25T19:03:57;3.30;2.40
1476;DHT22;730;48.870;12.542;2023-02-25T19:06:27;3.30;2.30
1476;DHT22;730;48.870;12.542;2023-02-25T19:08:53;3.30;2.60
1476;DHT22;730;48.870;12.542;2023-02-25T19:11:24;3.30;2.50
1476;DHT22;730;48.870;12.542;2023-02-25T19:13:51;3.30;2.30
1476;DHT22;730;48.870;12.542;2023-02-25T19:16:17;3.20;1.60
1476;DHT22;730;48.870;12.542;2023-02-25T19:18:45;3.10;1.00
1476;DHT22;730;48.870;12.542;2023-02-25T19:21:16;3.10;1.00
1476;DHT22;730;48.870;12.542;2023-02-25T19:23:43;3.00;1.00
1476;DHT22;730;48.870;12.542;2023-02-25T19:26:09;3.00;1.20
1476;DHT22;730;48.870;12.542;2023-02-25T19:28:36;3.00;1.40
1476;DHT22;730;48.870;12.542;2023-02-25T19:31:04;2.90;2.40
1476;DHT22;730;48.870;12.542;2023-02-25T19:33:31;2.90;1.90
1476;DHT22;730;48.870;12.542;2023-02-25T19:35:57;2.90;1.60
1476;DHT22;730;48.870;12.542;2023-02-25T19:38:23;2.80;1.10
1476;DHT22;730;48.870;12.542;2023-02-25T19:40:50;2.80;1.00
1476;DHT22;730;48.870;12.542;2023-02-25T19:43:17;2.80;1.00
1476;DHT22;730;48.870;12.542;2023-02-25T19:45:43;2.70;1.00
1476;DHT22;730;48.870;12.542;2023-02-25T19:48:09;2.70;1.00
1476;DHT22;730;48.870;12.542;2023-02-25T19:50:38;2.60;1.00
1476;DHT22;730;48.870;12.542;2023-02-25T19:53:04;2.60;1.00
1476;DHT22;730;48.870;12.542;2023-02-25T19:55:30;2.60;1.00
1476;DHT22;730;48.870;12.542;2023-02-25T19:57:56;2.60;1.00
1476;DHT22;730;48.870;12.542;2023-02-25T20:00:24;2.60;1.00
1476;DHT22;730;48.870;12.542;2023-02-25T20:02:50;2.60;1.00
1476;DHT22;730;48.870;12.542;2023-02-25T20:05:19;2.60;1.00
1476;DHT22;730;48.870;12.542;2023-02-25T20:07:45;2.60;1.00
1476;DHT22;730;48.870;12.542;2023-02-25T20:10:13;2.60;1.00
1476;DHT22;730;48.870;12.542;2023-02-25T20:12:41;2.50;1.00
1476;DHT22;730;48.870;12.542;2023-02-25T20:15:08;2.50;1.00
1476;DHT22;730;48.870;12.542;2023-02-25T20:17:39;2.50;1.00
1476;DHT22;730;48.870;12.542;2023-02-25T20:20:06;2.40;1.00
1476;DHT22;730;48.870;12.542;2023-02-25T20:22:33;2.30;1.00
1476;DHT22;730;48.870;12.542;2023-02-25T20:24:59;2.30;1.00
1476;DHT22;730;48.870;12.542;2023-02-25T20:27:26;2.30;1.00
1476;DHT22;730;48.870;12.542;2023-02-25T20:29:52;2.30;1.00
1476;DHT22;730;48.870;12.542;2023-02-25T20:32:20;2.30;1.00
1476;DHT22;730;48.870;12.542;2023-02-25T20:34:47;2.20;1.00
1476;DHT22;730;48.870;12.542;2023-02-25T20:37:22;2.30;1.00
1476;DHT22;730;48.870;12.542;2023-02-25T20:39:53;2.30;1.00
1476;DHT22;730;48.870;12.542;2023-02-25T20:42:23;2.30;1.00
1476;DHT22;730;48.870;12.542;2023-02-25T20:44:51;2.30;1.00
1476;DHT22;730;48.870;12.542;2023-02-25T20:47:24;2.40;1.00
1476;DHT22;730;48.870;12.542;2023-02-25T20:49:50;2.40;1.00
1476;DHT22;730;48.870;12.542;2023-02-25T20:52:16;2.40;1.00
1476;DHT22;730;48.870;12.542;2023-02-25T20:54:46;2.40;1.00
1476;DHT22;730;48.870;12.542;2023-02-25T20:57:14;2.40;1.00